sensor_id;sensor_type;location;lat;lon;timestamp;P1;durP1;ratioP1;P2;durP2;ratioP2
4138;SDS011;2083;51.034;6.996;2022-07-23T00:00:56;31.40;;;18.30;;
4138;SDS011;2083;51.034;6.996;2022-07-23T00:03:22;27.10;;;20.20;;
4138;SDS011;2083;51.034;6.996;2022-07-23T00:05:48;28.97;;;18.03;;
4138;SDS011;2083;51.034;6.996;2022-07-23T00:08:14;22.47;;;16.37;;
4138;SDS011;2083;51.034;6.996;2022-07-23T00:10:40;22.90;;;17.30;;
4138;SDS011;2083;51.034;6.996;2022-07-23T00:13:06;26.40;;;17.07;;
4138;SDS011;2083;51.034;6.996;2022-07-23T00:15:32;27.80;;;17.23;;
4138;SDS011;2083;51.034;6.996;2022-07-23T00:17:58;22.33;;;16.77;;
4138;SDS011;2083;51.034;6.996;2022-07-23T00:20:24;31.73;;;18.77;;
4138;SDS011;2083;51.034;6.996;2022-07-23T00:22:51;24.70;;;16.87;;
4138;SDS011;2083;51.034;6.996;2022-07-23T00:25:18;23.83;;;16.80;;
4138;SDS011;2083;51.034;6.996;2022-07-23T00:27:44;21.57;;;16.47;;
4138;SDS011;2083;51.034;6.996;2022-07-23T00:30:10;19.27;;;16.50;;
4138;SDS011;2083;51.034;6.996;2022-07-23T00:32:46;24.97;;;16.90;;
4138;SDS011;2083;51.034;6.996;2022-07-23T00:35:13;27.47;;;17.60;;
4138;SDS011;2083;51.034;6.996;2022-07-23T00:37:39;24.77;;;17.30;;
4138;SDS011;2083;51.034;6.996;2022-07-23T00:40:05;28.70;;;18.27;;
4138;SDS011;2083;51.034;6.996;2022-07-23T00:42:31;24.67;;;18.00;;
4138;SDS011;2083;51.034;6.996;2022-07-23T00:44:57;28.60;;;19.03;;
4138;SDS011;2083;51.034;6.996;2022-07-23T00:47:23;32.07;;;20.00;;
4138;SDS011;2083;51.034;6.996;2022-07-23T00:49:49;27.33;;;19.23;;
4138;SDS011;2083;51.034;6.996;2022-07-23T00:52:15;34.23;;;19.60;;
4138;SDS011;2083;51.034;6.996;2022-07-23T00:54:41;32.10;;;18.00;;
4138;SDS011;2083;51.034;6.996;2022-07-23T00:57:08;25.63;;;17.80;;
4138;SDS011;2083;51.034;6.996;2022-07-23T00:59:34;29.33;;;18.93;;
4138;SDS011;2083;51.034;6.996;2022-07-23T01:02:00;33.43;;;19.87;;
4138;SDS011;2083;51.034;6.996;2022-07-23T01:04:26;31.63;;;18.30;;
4138;SDS011;2083;51.034;6.996;2022-07-23T01:06:52;24.57;;;17.60;;
4138;SDS011;2083;51.034;6.996;2022-07-23T01:09:18;25.57;;;17.50;;
4138;SDS011;2083;51.034;6.996;2022-07-23T01:11:44;27.33;;;18.00;;
4138;SDS011;2083;51.034;6.996;2022-07-23T01:14:14;29.23;;;16.80;;
4138;SDS011;2083;51.034;6.996;2022-07-23T01:16:41;23.20;;;16.43;;
4138;SDS011;2083;51.034;6.996;2022-07-23T01:19:07;29.00;;;16.37;;
4138;SDS011;2083;51.034;6.996;2022-07-23T01:21:38;25.07;;;15.67;;
4138;SDS011;2083;51.034;6.996;2022-07-23T01:24:04;26.67;;;16.37;;
4138;SDS011;2083;51.034;6.996;2022-07-23T01:26:30;24.63;;;16.47;;
4138;SDS011;2083;51.034;6.996;2022-07-23T01:28:56;31.37;;;15.53;;
4138;SDS011;2083;51.034;6.996;2022-07-23T01:31:22;25.30;;;17.10;;
4138;SDS011;2083;51.034;6.996;2022-07-23T01:33:49;22.70;;;15.83;;
4138;SDS011;2083;51.034;6.996;2022-07-23T01:36:15;28.00;;;16.33;;
4138;SDS011;2083;51.034;6.996;2022-07-23T01:38:41;22.03;;;15.27;;
4138;SDS011;2083;51.034;6.996;2022-07-23T01:41:07;31.97;;;16.00;;
4138;SDS011;2083;51.034;6.996;2022-07-23T01:43:33;21.50;;;15.20;;
4138;SDS011;2083;51.034;6.996;2022-07-23T01:45:59;23.23;;;16.13;;
4138;SDS011;2083;51.034;6.996;2022-07-23T01:48:24;22.93;;;16.10;;
4138;SDS011;2083;51.034;6.996;2022-07-23T01:50:50;25.57;;;15.20;;
4138;SDS011;2083;51.034;6.996;2022-07-23T01:53:16;20.87;;;15.60;;
4138;SDS011;2083;51.034;6.996;2022-07-23T01:55:42;28.00;;;15.63;;
4138;SDS011;2083;51.034;6.996;2022-07-23T01:58:09;18.17;;;14.70;;
4138;SDS011;2083;51.034;6.996;2022-07-23T02:00:35;28.20;;;15.70;;
4138;SDS011;2083;51.034;6.996;2022-07-23T02:03:01;25.67;;;17.00;;
4138;SDS011;2083;51.034;6.996;2022-07-23T02:05:27;26.50;;;16.77;;
4138;SDS011;2083;51.034;6.996;2022-07-23T02:07:56;24.00;;;15.50;;
4138;SDS011;2083;51.034;6.996;2022-07-23T02:10:22;22.47;;;15.23;;
4138;SDS011;2083;51.034;6.996;2022-07-23T02:12:50;22.50;;;16.10;;
4138;SDS011;2083;51.034;6.996;2022-07-23T02:15:16;28.57;;;17.50;;
4138;SDS011;2083;51.034;6.996;2022-07-23T02:17:42;24.17;;;15.70;;
4138;SDS011;2083;51.034;6.996;2022-07-23T02:20:08;27.33;;;16.23;;
4138;SDS011;2083;51.034;6.996;2022-07-23T02:22:34;27.87;;;14.97;;
4138;SDS011;2083;51.034;6.996;2022-07-23T02:25:01;24.60;;;15.20;;
4138;SDS011;2083;51.034;6.996;2022-07-23T02:27:27;24.37;;;15.70;;
4138;SDS011;2083;51.034;6.996;2022-07-23T02:29:53;24.57;;;15.40;;
4138;SDS011;2083;51.034;6.996;2022-07-23T02:32:19;24.70;;;14.93;;
4138;SDS011;2083;51.034;6.996;2022-07-23T02:34:46;24.63;;;16.50;;
4138;SDS011;2083;51.034;6.996;2022-07-23T02:37:12;24.63;;;16.03;;
4138;SDS011;2083;51.034;6.996;2022-07-23T02:39:38;30.17;;;16.53;;
4138;SDS011;2083;51.034;6.996;2022-07-23T02:42:04;32.73;;;17.70;;
4138;SDS011;2083;51.034;6.996;2022-07-23T02:44:30;27.43;;;16.63;;
4138;SDS011;2083;51.034;6.996;2022-07-23T02:46:56;29.97;;;17.90;;
4138;SDS011;2083;51.034;6.996;2022-07-23T02:49:23;31.90;;;19.37;;
4138;SDS011;2083;51.034;6.996;2022-07-23T02:51:49;32.37;;;18.63;;
4138;SDS011;2083;51.034;6.996;2022-07-23T02:54:15;34.40;;;18.40;;
4138;SDS011;2083;51.034;6.996;2022-07-23T02:56:41;31.17;;;18.70;;
4138;SDS011;2083;51.034;6.996;2022-07-23T02:59:07;28.20;;;18.97;;
4138;SDS011;2083;51.034;6.996;2022-07-23T03:01:33;42.30;;;20.50;;
4138;SDS011;2083;51.034;6.996;2022-07-23T03:03:59;29.50;;;17.90;;
4138;SDS011;2083;51.034;6.996;2022-07-23T03:06:25;32.87;;;18.73;;
4138;SDS011;2083;51.034;6.996;2022-07-23T03:08:51;30.97;;;18.40;;
4138;SDS011;2083;51.034;6.996;2022-07-23T03:11:17;38.10;;;20.30;;
4138;SDS011;2083;51.034;6.996;2022-07-23T03:13:43;36.83;;;19.47;;
4138;SDS011;2083;51.034;6.996;2022-07-23T03:16:09;34.20;;;19.40;;
4138;SDS011;2083;51.034;6.996;2022-07-23T03:18:35;37.43;;;20.30;;
4138;SDS011;2083;51.034;6.996;2022-07-23T03:21:01;36.70;;;19.20;;
4138;SDS011;2083;51.034;6.996;2022-07-23T03:23:27;30.83;;;19.00;;
4138;SDS011;2083;51.034;6.996;2022-07-23T03:25:53;38.40;;;19.23;;
4138;SDS011;2083;51.034;6.996;2022-07-23T03:28:19;35.50;;;18.73;;
4138;SDS011;2083;51.034;6.996;2022-07-23T03:30:45;37.33;;;20.17;;
4138;SDS011;2083;51.034;6.996;2022-07-23T03:33:12;41.40;;;19.40;;
4138;SDS011;2083;51.034;6.996;2022-07-23T03:35:39;37.57;;;19.20;;
4138;SDS011;2083;51.034;6.996;2022-07-23T03:38:05;34.17;;;20.03;;
4138;SDS011;2083;51.034;6.996;2022-07-23T03:40:31;36.50;;;19.33;;
4138;SDS011;2083;51.034;6.996;2022-07-23T03:42:57;30.43;;;19.50;;
4138;SDS011;2083;51.034;6.996;2022-07-23T03:45:23;36.20;;;18.80;;
4138;SDS011;2083;51.034;6.996;2022-07-23T03:47:49;39.20;;;18.73;;
4138;SDS011;2083;51.034;6.996;2022-07-23T03:50:15;35.70;;;19.00;;
4138;SDS011;2083;51.034;6.996;2022-07-23T03:52:40;44.67;;;17.83;;
4138;SDS011;2083;51.034;6.996;2022-07-23T03:55:07;39.57;;;18.53;;
4138;SDS011;2083;51.034;6.996;2022-07-23T03:57:33;34.23;;;18.67;;
4138;SDS011;2083;51.034;6.996;2022-07-23T03:59:59;37.40;;;18.43;;
4138;SDS011;2083;51.034;6.996;2022-07-23T04:02:25;32.43;;;17.60;;
4138;SDS011;2083;51.034;6.996;2022-07-23T04:04:51;29.03;;;17.20;;
4138;SDS011;2083;51.034;6.996;2022-07-23T04:07:17;38.10;;;18.50;;
4138;SDS011;2083;51.034;6.996;2022-07-23T04:09:43;35.30;;;18.00;;
4138;SDS011;2083;51.034;6.996;2022-07-23T04:12:09;37.50;;;18.93;;
4138;SDS011;2083;51.034;6.996;2022-07-23T04:14:35;30.77;;;16.90;;
4138;SDS011;2083;51.034;6.996;2022-07-23T04:17:01;35.30;;;18.07;;
4138;SDS011;2083;51.034;6.996;2022-07-23T04:19:27;29.83;;;17.60;;
4138;SDS011;2083;51.034;6.996;2022-07-23T04:21:55;29.83;;;16.50;;
4138;SDS011;2083;51.034;6.996;2022-07-23T04:24:21;32.60;;;16.77;;
4138;SDS011;2083;51.034;6.996;2022-07-23T04:26:47;26.67;;;15.80;;
4138;SDS011;2083;51.034;6.996;2022-07-23T04:29:13;27.53;;;16.23;;
4138;SDS011;2083;51.034;6.996;2022-07-23T04:31:39;28.10;;;16.20;;
4138;SDS011;2083;51.034;6.996;2022-07-23T04:34:06;29.83;;;17.10;;
4138;SDS011;2083;51.034;6.996;2022-07-23T04:36:32;27.93;;;15.80;;
4138;SDS011;2083;51.034;6.996;2022-07-23T04:38:58;25.93;;;16.20;;
4138;SDS011;2083;51.034;6.996;2022-07-23T04:41:25;26.30;;;17.40;;
4138;SDS011;2083;51.034;6.996;2022-07-23T04:43:51;26.10;;;18.70;;
4138;SDS011;2083;51.034;6.996;2022-07-23T04:46:17;31.60;;;18.30;;
4138;SDS011;2083;51.034;6.996;2022-07-23T04:48:43;29.73;;;18.10;;
4138;SDS011;2083;51.034;6.996;2022-07-23T04:51:09;30.77;;;18.90;;
4138;SDS011;2083;51.034;6.996;2022-07-23T04:53:36;27.03;;;17.90;;
4138;SDS011;2083;51.034;6.996;2022-07-23T04:56:03;26.80;;;17.80;;
4138;SDS011;2083;51.034;6.996;2022-07-23T04:58:29;27.37;;;18.00;;
4138;SDS011;2083;51.034;6.996;2022-07-23T05:00:56;27.23;;;17.70;;
4138;SDS011;2083;51.034;6.996;2022-07-23T05:03:22;20.83;;;15.60;;
4138;SDS011;2083;51.034;6.996;2022-07-23T05:05:49;20.43;;;15.63;;
4138;SDS011;2083;51.034;6.996;2022-07-23T05:08:15;25.80;;;16.10;;
4138;SDS011;2083;51.034;6.996;2022-07-23T05:10:41;21.40;;;14.40;;
4138;SDS011;2083;51.034;6.996;2022-07-23T05:13:07;24.20;;;14.90;;
4138;SDS011;2083;51.034;6.996;2022-07-23T05:15:33;25.53;;;15.70;;
4138;SDS011;2083;51.034;6.996;2022-07-23T05:17:59;22.90;;;13.90;;
4138;SDS011;2083;51.034;6.996;2022-07-23T05:20:25;22.13;;;14.87;;
4138;SDS011;2083;51.034;6.996;2022-07-23T05:22:51;21.73;;;15.03;;
4138;SDS011;2083;51.034;6.996;2022-07-23T05:25:17;29.60;;;16.40;;
4138;SDS011;2083;51.034;6.996;2022-07-23T05:27:43;22.57;;;14.97;;
4138;SDS011;2083;51.034;6.996;2022-07-23T05:30:09;24.07;;;16.57;;
4138;SDS011;2083;51.034;6.996;2022-07-23T05:32:36;24.00;;;16.63;;
4138;SDS011;2083;51.034;6.996;2022-07-23T05:35:02;22.20;;;15.57;;
4138;SDS011;2083;51.034;6.996;2022-07-23T05:37:28;23.73;;;15.73;;
4138;SDS011;2083;51.034;6.996;2022-07-23T05:39:55;26.43;;;17.60;;
4138;SDS011;2083;51.034;6.996;2022-07-23T05:42:21;22.50;;;15.90;;
4138;SDS011;2083;51.034;6.996;2022-07-23T05:44:47;24.03;;;16.63;;
4138;SDS011;2083;51.034;6.996;2022-07-23T05:47:13;24.67;;;16.00;;
4138;SDS011;2083;51.034;6.996;2022-07-23T05:49:39;28.73;;;15.87;;
4138;SDS011;2083;51.034;6.996;2022-07-23T05:52:05;25.43;;;15.07;;
4138;SDS011;2083;51.034;6.996;2022-07-23T05:54:33;25.97;;;15.07;;
4138;SDS011;2083;51.034;6.996;2022-07-23T05:57:00;27.33;;;15.13;;
4138;SDS011;2083;51.034;6.996;2022-07-23T05:59:26;21.20;;;15.20;;
4138;SDS011;2083;51.034;6.996;2022-07-23T06:01:52;22.57;;;14.40;;
4138;SDS011;2083;51.034;6.996;2022-07-23T06:04:19;25.23;;;15.30;;
4138;SDS011;2083;51.034;6.996;2022-07-23T06:06:45;21.47;;;15.10;;
4138;SDS011;2083;51.034;6.996;2022-07-23T06:09:11;24.30;;;15.83;;
4138;SDS011;2083;51.034;6.996;2022-07-23T06:11:38;20.53;;;14.73;;
4138;SDS011;2083;51.034;6.996;2022-07-23T06:14:04;24.93;;;16.23;;
4138;SDS011;2083;51.034;6.996;2022-07-23T06:16:31;25.73;;;16.00;;
4138;SDS011;2083;51.034;6.996;2022-07-23T06:18:57;21.83;;;16.10;;
4138;SDS011;2083;51.034;6.996;2022-07-23T06:21:23;32.10;;;15.07;;
4138;SDS011;2083;51.034;6.996;2022-07-23T06:23:49;27.90;;;15.87;;
4138;SDS011;2083;51.034;6.996;2022-07-23T06:26:15;27.77;;;16.17;;
4138;SDS011;2083;51.034;6.996;2022-07-23T06:28:41;30.23;;;15.70;;
4138;SDS011;2083;51.034;6.996;2022-07-23T06:31:07;28.80;;;16.00;;
4138;SDS011;2083;51.034;6.996;2022-07-23T06:33:33;25.17;;;17.10;;
4138;SDS011;2083;51.034;6.996;2022-07-23T06:35:59;26.67;;;14.73;;
4138;SDS011;2083;51.034;6.996;2022-07-23T06:38:25;24.07;;;15.43;;
4138;SDS011;2083;51.034;6.996;2022-07-23T06:40:51;22.83;;;13.50;;
4138;SDS011;2083;51.034;6.996;2022-07-23T06:43:17;34.30;;;14.23;;
4138;SDS011;2083;51.034;6.996;2022-07-23T06:45:43;22.63;;;13.10;;
4138;SDS011;2083;51.034;6.996;2022-07-23T06:48:09;21.73;;;13.27;;
4138;SDS011;2083;51.034;6.996;2022-07-23T06:50:35;25.10;;;13.50;;
4138;SDS011;2083;51.034;6.996;2022-07-23T06:53:01;17.57;;;13.07;;
4138;SDS011;2083;51.034;6.996;2022-07-23T06:55:27;17.27;;;12.70;;
4138;SDS011;2083;51.034;6.996;2022-07-23T06:57:53;23.53;;;13.40;;
4138;SDS011;2083;51.034;6.996;2022-07-23T07:00:19;19.80;;;12.93;;
4138;SDS011;2083;51.034;6.996;2022-07-23T07:02:44;20.60;;;12.17;;
4138;SDS011;2083;51.034;6.996;2022-07-23T07:05:10;19.07;;;11.70;;
4138;SDS011;2083;51.034;6.996;2022-07-23T07:07:36;13.00;;;10.03;;
4138;SDS011;2083;51.034;6.996;2022-07-23T07:10:03;17.20;;;10.57;;
4138;SDS011;2083;51.034;6.996;2022-07-23T07:12:29;12.70;;;8.93;;
4138;SDS011;2083;51.034;6.996;2022-07-23T07:14:55;12.07;;;9.70;;
4138;SDS011;2083;51.034;6.996;2022-07-23T07:17:22;10.10;;;8.70;;
4138;SDS011;2083;51.034;6.996;2022-07-23T07:19:48;11.63;;;8.83;;
4138;SDS011;2083;51.034;6.996;2022-07-23T07:22:14;9.83;;;8.67;;
4138;SDS011;2083;51.034;6.996;2022-07-23T07:24:40;11.47;;;8.23;;
4138;SDS011;2083;51.034;6.996;2022-07-23T07:27:06;9.60;;;7.63;;
4138;SDS011;2083;51.034;6.996;2022-07-23T07:29:32;10.83;;;7.63;;
4138;SDS011;2083;51.034;6.996;2022-07-23T07:31:58;8.33;;;7.37;;
4138;SDS011;2083;51.034;6.996;2022-07-23T07:34:24;8.93;;;8.03;;
4138;SDS011;2083;51.034;6.996;2022-07-23T07:36:49;18.40;;;7.43;;
4138;SDS011;2083;51.034;6.996;2022-07-23T07:39:16;9.53;;;8.10;;
4138;SDS011;2083;51.034;6.996;2022-07-23T07:41:41;13.90;;;7.87;;
4138;SDS011;2083;51.034;6.996;2022-07-23T07:44:07;9.20;;;8.30;;
4138;SDS011;2083;51.034;6.996;2022-07-23T07:46:33;12.47;;;9.23;;
4138;SDS011;2083;51.034;6.996;2022-07-23T07:48:59;9.10;;;8.20;;
4138;SDS011;2083;51.034;6.996;2022-07-23T07:51:26;13.63;;;8.30;;
4138;SDS011;2083;51.034;6.996;2022-07-23T07:53:52;9.97;;;8.83;;
4138;SDS011;2083;51.034;6.996;2022-07-23T07:56:18;13.57;;;8.90;;
4138;SDS011;2083;51.034;6.996;2022-07-23T07:58:44;11.53;;;9.60;;
4138;SDS011;2083;51.034;6.996;2022-07-23T08:01:10;8.63;;;7.83;;
4138;SDS011;2083;51.034;6.996;2022-07-23T08:03:36;10.07;;;8.37;;
4138;SDS011;2083;51.034;6.996;2022-07-23T08:06:02;15.70;;;9.07;;
4138;SDS011;2083;51.034;6.996;2022-07-23T08:08:28;21.33;;;10.37;;
4138;SDS011;2083;51.034;6.996;2022-07-23T08:10:54;13.90;;;9.33;;
4138;SDS011;2083;51.034;6.996;2022-07-23T08:13:20;15.97;;;10.67;;
4138;SDS011;2083;51.034;6.996;2022-07-23T08:15:46;28.73;;;10.30;;
4138;SDS011;2083;51.034;6.996;2022-07-23T08:18:12;15.23;;;10.43;;
4138;SDS011;2083;51.034;6.996;2022-07-23T08:20:38;16.60;;;12.93;;
4138;SDS011;2083;51.034;6.996;2022-07-23T08:23:05;14.37;;;12.87;;
4138;SDS011;2083;51.034;6.996;2022-07-23T08:25:33;19.07;;;12.27;;
4138;SDS011;2083;51.034;6.996;2022-07-23T08:28:00;23.40;;;12.83;;
4138;SDS011;2083;51.034;6.996;2022-07-23T08:30:26;20.07;;;10.60;;
4138;SDS011;2083;51.034;6.996;2022-07-23T08:35:21;18.90;;;11.80;;
4138;SDS011;2083;51.034;6.996;2022-07-23T08:37:47;20.70;;;12.70;;
4138;SDS011;2083;51.034;6.996;2022-07-23T08:40:15;14.43;;;11.87;;
4138;SDS011;2083;51.034;6.996;2022-07-23T08:42:41;21.53;;;12.43;;
4138;SDS011;2083;51.034;6.996;2022-07-23T08:45:08;13.50;;;11.13;;
4138;SDS011;2083;51.034;6.996;2022-07-23T08:47:35;16.43;;;10.43;;
4138;SDS011;2083;51.034;6.996;2022-07-23T08:50:01;12.63;;;10.30;;
4138;SDS011;2083;51.034;6.996;2022-07-23T08:52:27;12.83;;;10.17;;
4138;SDS011;2083;51.034;6.996;2022-07-23T08:54:56;10.50;;;8.30;;
4138;SDS011;2083;51.034;6.996;2022-07-23T08:57:23;17.33;;;8.87;;
4138;SDS011;2083;51.034;6.996;2022-07-23T08:59:49;13.37;;;10.20;;
4138;SDS011;2083;51.034;6.996;2022-07-23T09:02:17;12.53;;;9.40;;
4138;SDS011;2083;51.034;6.996;2022-07-23T09:04:43;12.33;;;10.10;;
4138;SDS011;2083;51.034;6.996;2022-07-23T09:07:09;20.10;;;11.03;;
4138;SDS011;2083;51.034;6.996;2022-07-23T09:09:35;11.00;;;10.00;;
4138;SDS011;2083;51.034;6.996;2022-07-23T09:12:02;11.87;;;8.97;;
4138;SDS011;2083;51.034;6.996;2022-07-23T09:14:41;24.47;;;9.73;;
4138;SDS011;2083;51.034;6.996;2022-07-23T09:17:09;15.37;;;9.90;;
4138;SDS011;2083;51.034;6.996;2022-07-23T09:19:35;15.80;;;10.13;;
4138;SDS011;2083;51.034;6.996;2022-07-23T09:22:20;15.80;;;10.90;;
4138;SDS011;2083;51.034;6.996;2022-07-23T09:25:05;18.47;;;12.73;;
4138;SDS011;2083;51.034;6.996;2022-07-23T09:27:45;15.83;;;10.80;;
4138;SDS011;2083;51.034;6.996;2022-07-23T09:30:11;14.70;;;11.63;;
4138;SDS011;2083;51.034;6.996;2022-07-23T09:32:38;11.90;;;10.40;;
4138;SDS011;2083;51.034;6.996;2022-07-23T09:35:04;13.20;;;11.07;;
4138;SDS011;2083;51.034;6.996;2022-07-23T09:37:30;13.03;;;11.60;;
4138;SDS011;2083;51.034;6.996;2022-07-23T09:40:07;15.20;;;10.73;;
4138;SDS011;2083;51.034;6.996;2022-07-23T09:42:34;13.57;;;11.10;;
4138;SDS011;2083;51.034;6.996;2022-07-23T09:45:00;15.00;;;11.50;;
4138;SDS011;2083;51.034;6.996;2022-07-23T09:47:27;13.80;;;9.47;;
4138;SDS011;2083;51.034;6.996;2022-07-23T09:52:30;15.53;;;10.77;;
4138;SDS011;2083;51.034;6.996;2022-07-23T09:54:59;12.47;;;11.00;;
4138;SDS011;2083;51.034;6.996;2022-07-23T09:57:26;12.57;;;11.20;;
4138;SDS011;2083;51.034;6.996;2022-07-23T09:59:52;13.30;;;10.80;;
4138;SDS011;2083;51.034;6.996;2022-07-23T10:02:18;14.10;;;10.60;;
4138;SDS011;2083;51.034;6.996;2022-07-23T10:04:45;13.43;;;10.47;;
4138;SDS011;2083;51.034;6.996;2022-07-23T10:07:11;16.17;;;10.77;;
4138;SDS011;2083;51.034;6.996;2022-07-23T10:09:39;11.50;;;10.23;;
4138;SDS011;2083;51.034;6.996;2022-07-23T10:12:14;10.53;;;9.30;;
4138;SDS011;2083;51.034;6.996;2022-07-23T10:15:13;16.40;;;7.80;;
4138;SDS011;2083;51.034;6.996;2022-07-23T10:17:39;9.53;;;8.63;;
4138;SDS011;2083;51.034;6.996;2022-07-23T10:20:05;10.90;;;10.00;;
4138;SDS011;2083;51.034;6.996;2022-07-23T10:22:33;10.10;;;9.07;;
4138;SDS011;2083;51.034;6.996;2022-07-23T10:25:27;13.10;;;9.90;;
4138;SDS011;2083;51.034;6.996;2022-07-23T10:28:33;16.67;;;9.40;;
4138;SDS011;2083;51.034;6.996;2022-07-23T10:30:51;11.33;;;8.97;;
4138;SDS011;2083;51.034;6.996;2022-07-23T10:33:24;11.17;;;8.10;;
4138;SDS011;2083;51.034;6.996;2022-07-23T10:36:03;8.10;;;7.40;;
4138;SDS011;2083;51.034;6.996;2022-07-23T10:38:30;8.00;;;7.30;;
4138;SDS011;2083;51.034;6.996;2022-07-23T10:40:59;12.50;;;8.07;;
4138;SDS011;2083;51.034;6.996;2022-07-23T10:43:25;8.17;;;7.50;;
4138;SDS011;2083;51.034;6.996;2022-07-23T10:45:51;8.97;;;8.10;;
4138;SDS011;2083;51.034;6.996;2022-07-23T10:48:18;8.13;;;7.53;;
4138;SDS011;2083;51.034;6.996;2022-07-23T10:53:40;8.63;;;7.93;;
4138;SDS011;2083;51.034;6.996;2022-07-23T10:56:15;6.30;;;5.90;;
4138;SDS011;2083;51.034;6.996;2022-07-23T10:58:48;6.90;;;6.20;;
4138;SDS011;2083;51.034;6.996;2022-07-23T11:01:34;6.47;;;6.03;;
4138;SDS011;2083;51.034;6.996;2022-07-23T11:04:01;7.70;;;7.00;;
4138;SDS011;2083;51.034;6.996;2022-07-23T11:12:31;9.17;;;8.20;;
4138;SDS011;2083;51.034;6.996;2022-07-23T11:15:00;8.73;;;8.03;;
4138;SDS011;2083;51.034;6.996;2022-07-23T11:17:26;9.30;;;8.57;;
4138;SDS011;2083;51.034;6.996;2022-07-23T11:25:10;9.40;;;8.60;;
4138;SDS011;2083;51.034;6.996;2022-07-23T11:27:37;18.83;;;7.60;;
4138;SDS011;2083;51.034;6.996;2022-07-23T11:30:03;9.30;;;8.70;;
4138;SDS011;2083;51.034;6.996;2022-07-23T11:32:30;8.43;;;7.40;;
4138;SDS011;2083;51.034;6.996;2022-07-23T11:34:58;8.33;;;7.73;;
4138;SDS011;2083;51.034;6.996;2022-07-23T11:37:40;8.73;;;8.07;;
4138;SDS011;2083;51.034;6.996;2022-07-23T11:42:33;7.90;;;7.40;;
4138;SDS011;2083;51.034;6.996;2022-07-23T11:44:59;13.37;;;8.77;;
4138;SDS011;2083;51.034;6.996;2022-07-23T11:47:25;8.17;;;7.57;;
4138;SDS011;2083;51.034;6.996;2022-07-23T11:49:54;8.07;;;6.77;;
4138;SDS011;2083;51.034;6.996;2022-07-23T11:52:21;7.47;;;7.00;;
4138;SDS011;2083;51.034;6.996;2022-07-23T11:57:20;8.27;;;7.00;;
4138;SDS011;2083;51.034;6.996;2022-07-23T11:59:47;17.37;;;8.20;;
4138;SDS011;2083;51.034;6.996;2022-07-23T12:02:15;7.23;;;6.73;;
4138;SDS011;2083;51.034;6.996;2022-07-23T12:04:44;8.90;;;8.17;;
4138;SDS011;2083;51.034;6.996;2022-07-23T12:09:48;10.03;;;9.17;;
4138;SDS011;2083;51.034;6.996;2022-07-23T12:12:14;7.43;;;6.30;;
4138;SDS011;2083;51.034;6.996;2022-07-23T12:14:50;7.70;;;6.87;;
4138;SDS011;2083;51.034;6.996;2022-07-23T12:17:17;8.43;;;7.40;;
4138;SDS011;2083;51.034;6.996;2022-07-23T12:19:43;9.67;;;8.70;;
4138;SDS011;2083;51.034;6.996;2022-07-23T12:22:09;9.50;;;8.67;;
4138;SDS011;2083;51.034;6.996;2022-07-23T12:27:21;7.20;;;6.70;;
4138;SDS011;2083;51.034;6.996;2022-07-23T12:29:47;7.47;;;6.70;;
4138;SDS011;2083;51.034;6.996;2022-07-23T12:32:17;9.03;;;7.77;;
4138;SDS011;2083;51.034;6.996;2022-07-23T12:34:43;7.10;;;6.50;;
4138;SDS011;2083;51.034;6.996;2022-07-23T12:37:24;6.23;;;5.63;;
4138;SDS011;2083;51.034;6.996;2022-07-23T12:39:50;6.03;;;5.43;;
4138;SDS011;2083;51.034;6.996;2022-07-23T12:42:16;6.00;;;5.47;;
4138;SDS011;2083;51.034;6.996;2022-07-23T12:45:01;6.13;;;5.63;;
4138;SDS011;2083;51.034;6.996;2022-07-23T12:47:28;8.17;;;6.00;;
4138;SDS011;2083;51.034;6.996;2022-07-23T12:49:54;10.07;;;6.30;;
4138;SDS011;2083;51.034;6.996;2022-07-23T12:52:19;7.57;;;6.57;;
4138;SDS011;2083;51.034;6.996;2022-07-23T12:54:45;6.53;;;5.90;;
4138;SDS011;2083;51.034;6.996;2022-07-23T12:57:13;9.03;;;5.90;;
4138;SDS011;2083;51.034;6.996;2022-07-23T12:59:40;6.47;;;5.83;;
4138;SDS011;2083;51.034;6.996;2022-07-23T13:02:07;14.57;;;6.17;;
4138;SDS011;2083;51.034;6.996;2022-07-23T13:04:34;9.63;;;6.93;;
4138;SDS011;2083;51.034;6.996;2022-07-23T13:07:00;8.47;;;7.10;;
4138;SDS011;2083;51.034;6.996;2022-07-23T13:09:27;10.47;;;7.40;;
4138;SDS011;2083;51.034;6.996;2022-07-23T13:11:54;8.40;;;6.90;;
4138;SDS011;2083;51.034;6.996;2022-07-23T13:14:21;9.03;;;7.03;;
4138;SDS011;2083;51.034;6.996;2022-07-23T13:16:48;7.67;;;6.97;;
4138;SDS011;2083;51.034;6.996;2022-07-23T13:19:15;7.43;;;6.73;;
4138;SDS011;2083;51.034;6.996;2022-07-23T13:21:41;6.70;;;6.10;;
4138;SDS011;2083;51.034;6.996;2022-07-23T13:24:08;7.00;;;5.63;;
4138;SDS011;2083;51.034;6.996;2022-07-23T13:26:34;6.40;;;5.17;;
4138;SDS011;2083;51.034;6.996;2022-07-23T13:29:01;6.03;;;5.30;;
4138;SDS011;2083;51.034;6.996;2022-07-23T13:31:27;4.63;;;4.33;;
4138;SDS011;2083;51.034;6.996;2022-07-23T13:33:53;4.73;;;4.43;;
4138;SDS011;2083;51.034;6.996;2022-07-23T13:36:19;6.50;;;4.00;;
4138;SDS011;2083;51.034;6.996;2022-07-23T13:38:45;4.37;;;4.07;;
4138;SDS011;2083;51.034;6.996;2022-07-23T13:41:11;4.07;;;3.87;;
4138;SDS011;2083;51.034;6.996;2022-07-23T13:43:37;5.07;;;3.50;;
4138;SDS011;2083;51.034;6.996;2022-07-23T13:46:03;3.57;;;3.47;;
4138;SDS011;2083;51.034;6.996;2022-07-23T13:48:29;6.20;;;3.40;;
4138;SDS011;2083;51.034;6.996;2022-07-23T13:50:55;3.90;;;3.60;;
4138;SDS011;2083;51.034;6.996;2022-07-23T13:53:22;4.73;;;4.33;;
4138;SDS011;2083;51.034;6.996;2022-07-23T13:55:48;9.73;;;4.03;;
4138;SDS011;2083;51.034;6.996;2022-07-23T13:58:15;4.47;;;3.80;;
4138;SDS011;2083;51.034;6.996;2022-07-23T14:00:43;4.10;;;3.90;;
4138;SDS011;2083;51.034;6.996;2022-07-23T14:03:09;8.07;;;4.10;;
4138;SDS011;2083;51.034;6.996;2022-07-23T14:05:35;3.97;;;3.67;;
4138;SDS011;2083;51.034;6.996;2022-07-23T14:08:02;7.87;;;4.20;;
4138;SDS011;2083;51.034;6.996;2022-07-23T14:10:28;3.93;;;3.63;;
4138;SDS011;2083;51.034;6.996;2022-07-23T14:12:54;4.70;;;4.30;;
4138;SDS011;2083;51.034;6.996;2022-07-23T14:15:22;4.17;;;3.87;;
4138;SDS011;2083;51.034;6.996;2022-07-23T14:17:48;5.00;;;3.97;;
4138;SDS011;2083;51.034;6.996;2022-07-23T14:20:15;3.87;;;3.67;;
4138;SDS011;2083;51.034;6.996;2022-07-23T14:22:41;8.50;;;3.60;;
4138;SDS011;2083;51.034;6.996;2022-07-23T14:25:07;3.73;;;3.50;;
4138;SDS011;2083;51.034;6.996;2022-07-23T14:27:33;3.40;;;3.20;;
4138;SDS011;2083;51.034;6.996;2022-07-23T14:29:59;4.57;;;3.67;;
4138;SDS011;2083;51.034;6.996;2022-07-23T14:32:26;5.83;;;3.60;;
4138;SDS011;2083;51.034;6.996;2022-07-23T14:34:52;4.70;;;4.00;;
4138;SDS011;2083;51.034;6.996;2022-07-23T14:37:18;4.13;;;3.73;;
4138;SDS011;2083;51.034;6.996;2022-07-23T14:39:44;3.70;;;3.40;;
4138;SDS011;2083;51.034;6.996;2022-07-23T14:42:10;3.77;;;3.57;;
4138;SDS011;2083;51.034;6.996;2022-07-23T14:44:37;4.10;;;3.80;;
4138;SDS011;2083;51.034;6.996;2022-07-23T14:47:03;3.97;;;3.67;;
4138;SDS011;2083;51.034;6.996;2022-07-23T14:49:32;4.50;;;3.57;;
4138;SDS011;2083;51.034;6.996;2022-07-23T14:52:00;4.10;;;3.90;;
4138;SDS011;2083;51.034;6.996;2022-07-23T14:54:26;5.47;;;3.80;;
4138;SDS011;2083;51.034;6.996;2022-07-23T14:56:53;3.83;;;3.57;;
4138;SDS011;2083;51.034;6.996;2022-07-23T14:59:20;3.50;;;3.30;;
4138;SDS011;2083;51.034;6.996;2022-07-23T15:01:48;4.27;;;4.00;;
4138;SDS011;2083;51.034;6.996;2022-07-23T15:04:14;7.30;;;3.57;;
4138;SDS011;2083;51.034;6.996;2022-07-23T15:06:41;3.90;;;3.60;;
4138;SDS011;2083;51.034;6.996;2022-07-23T15:09:08;5.00;;;3.40;;
4138;SDS011;2083;51.034;6.996;2022-07-23T15:11:33;3.90;;;3.70;;
4138;SDS011;2083;51.034;6.996;2022-07-23T15:14:01;4.43;;;3.10;;
4138;SDS011;2083;51.034;6.996;2022-07-23T15:16:27;4.40;;;3.07;;
4138;SDS011;2083;51.034;6.996;2022-07-23T15:18:53;3.13;;;3.00;;
4138;SDS011;2083;51.034;6.996;2022-07-23T15:21:19;3.20;;;3.00;;
4138;SDS011;2083;51.034;6.996;2022-07-23T15:23:45;3.40;;;3.20;;
4138;SDS011;2083;51.034;6.996;2022-07-23T15:26:12;3.23;;;3.03;;